Hovedside
METAR-TAF:

METAR-TAF

Lufthavner :

Burns, Oregon, USA

breddegrad: 43-35-42N, lengdegrad: 118-57-23W, høyde over havet: 1263 m

Gjeldene værobservasjon

Denne rapporten ble laget for 11 minutter siden, klokken 00:53 UTC
Vind 6 kt fra Øst
Temperatur 11°C
Luftfuktighet 37%
Trykk 1016 hPa
Sikt: 16.1 km
Skyfri himmel

METAR: KBNO 290053Z AUTO 10006KT 10SM CLR 11/M03 A2999 RMK AO2 SLP167 T01111033

Tid: 17:04 (01:04 UTC)

Varsel

Denne rapporten ble laget for 1 time og 26 minutter siden, klokken 23:38 UTC
Varsel gyldig fra 29. klokken 00 UTC til 29. klokken 24 UTC
Vind 4 kt fra skiftende retning
Sikt: 10 km
Spredte skyer i en høyde av 20000 ft
Fra 29. klokken 1000 UTC
Vind 8 kt fra Vest
Sikt: 10 km
Brutte skyer i en høyde av 10000 ft
Fra 29. klokken 1800 UTC
Vind 12 kt fra Vest med vindkast opp mot 20 kt
Sikt: 10 km
Spredte skyer i en høyde av 6000 ft
Overskyet i en høyde av 10000 ft

TAF: KBNO 282338Z 2900/2924 VRB04KT P6SM SCT200 FM291000 26008KT P6SM BKN100 FM291800 26012G20KT P6SM SCT060 OVC100

Værobservasjoner og værvarsel for over 4000 flyplasser (METAR- og TAF-rapporter).

Tilgjengelige stasjoner er representert av de røde og gule prikkene på kartet.

Hold musepekeren over prikken for å se navnet på stasjonen.

Klikk så for å se værobservasjoner og -varsler.

For å forandre kartet kan du klikke på den grønne knappen med svart kryss for å zoome inn, på den grønne knappen med strek for å zoome ut, eller på de grønne pilene for å se tilstøtende kart.


METAR-TAF: